createdAt,value
2022-07-25T00:02:11.700Z,98432.63
2022-07-25T00:04:44.934Z,98429.97
2022-07-25T00:07:13.152Z,98427.50
2022-07-25T00:09:44.599Z,98422.09
2022-07-25T00:12:12.868Z,98426.72
2022-07-25T00:14:41.713Z,98424.16
2022-07-25T00:17:08.424Z,98425.44
2022-07-25T00:19:35.104Z,98422.28
2022-07-25T00:22:01.709Z,98419.53
2022-07-25T00:24:28.253Z,98416.38
2022-07-25T00:27:02.928Z,98415.09
2022-07-25T00:29:29.731Z,98420.13
2022-07-25T00:31:58.245Z,98416.09
2022-07-25T00:34:24.824Z,98416.88
2022-07-25T00:36:56.110Z,98420.41
2022-07-25T00:40:34.411Z,98420.72
2022-07-25T00:43:01.110Z,98417.28
2022-07-25T00:45:31.366Z,98418.00
2022-07-25T00:47:57.987Z,98409.72
2022-07-25T00:50:24.629Z,98409.81
2022-07-25T00:52:53.464Z,98406.97
2022-07-25T00:55:24.573Z,98403.03
2022-07-25T00:57:53.255Z,98406.00
2022-07-25T01:00:23.778Z,98404.03
2022-07-25T01:02:53.272Z,98404.81
2022-07-25T01:05:19.855Z,98408.84
2022-07-25T01:07:50.788Z,98395.34
2022-07-25T01:10:18.262Z,98399.09
2022-07-25T01:12:54.062Z,98398.13
2022-07-25T01:15:25.217Z,98395.66
2022-07-25T01:17:52.047Z,98389.25
2022-07-25T01:20:22.684Z,98393.19
2022-07-25T01:22:49.766Z,98389.25
2022-07-25T01:25:17.500Z,98399.38
2022-07-25T01:27:44.337Z,98388.28
2022-07-25T01:30:14.049Z,98385.38
2022-07-25T01:32:51.703Z,98378.59
2022-07-25T01:35:19.936Z,98381.06
2022-07-25T01:37:49.254Z,98364.25
2022-07-25T01:40:30.813Z,98377.13
2022-07-25T01:43:22.150Z,98371.81
2022-07-25T01:45:53.605Z,98381.13
2022-07-25T01:48:22.498Z,98375.84
2022-07-25T01:50:51.436Z,98379.06
2022-07-25T01:53:19.110Z,98380.94
2022-07-25T01:55:49.287Z,98375.06
2022-07-25T01:58:19.310Z,98369.66
2022-07-25T02:00:53.396Z,98371.13
2022-07-25T02:03:36.233Z,98368.53
2022-07-25T02:06:09.879Z,98366.47
2022-07-25T02:08:41.259Z,98360.69
2022-07-25T02:11:07.914Z,98370.19
2022-07-25T02:13:34.619Z,98367.84
2022-07-25T02:16:07.191Z,98371.00
2022-07-25T02:18:42.407Z,98368.91
2022-07-25T02:21:13.754Z,98367.16
2022-07-25T02:23:41.302Z,98372.72
2022-07-25T02:26:07.868Z,98369.72
2022-07-25T02:28:35.689Z,98365.38
2022-07-25T02:31:04.451Z,98374.13
2022-07-25T02:33:33.937Z,98361.38
2022-07-25T02:36:10.719Z,98363.13
2022-07-25T02:38:41.992Z,98365.28
2022-07-25T02:41:11.601Z,98367.22
2022-07-25T02:43:40.721Z,98369.97
2022-07-25T02:46:08.571Z,98371.63
2022-07-25T02:48:36.352Z,98367.13
2022-07-25T02:51:06.265Z,98371.47
2022-07-25T02:53:55.966Z,98367.75
2022-07-25T02:56:23.796Z,98375.16
2022-07-25T02:58:52.260Z,98375.59
2022-07-25T03:01:20.943Z,98377.78
2022-07-25T03:03:51.931Z,98376.56
2022-07-25T03:06:19.694Z,98380.88
2022-07-25T03:08:47.242Z,98377.50
2022-07-25T03:11:16.890Z,98377.00
2022-07-25T03:13:56.619Z,98372.84
2022-07-25T03:16:29.047Z,98378.69
2022-07-25T03:18:57.097Z,98375.03
2022-07-25T03:21:26.324Z,98364.94
2022-07-25T03:23:53.039Z,98365.22
2022-07-25T03:26:20.162Z,98361.72
2022-07-25T03:28:46.754Z,98366.25
2022-07-25T03:31:13.300Z,98355.94
2022-07-25T03:33:42.142Z,98349.59
2022-07-25T03:36:10.322Z,98346.50
2022-07-25T03:38:39.986Z,98342.78
2022-07-25T03:41:06.628Z,98346.44
2022-07-25T03:43:34.471Z,98331.28
2022-07-25T03:46:01.028Z,98334.97
2022-07-25T03:48:30.392Z,98334.19
2022-07-25T03:51:03.561Z,98329.91
2022-07-25T03:53:33.713Z,98324.69
2022-07-25T03:56:00.371Z,98322.09
2022-07-25T03:58:26.935Z,98323.31
2022-07-25T04:00:58.813Z,98327.03
2022-07-25T04:03:25.393Z,98333.97
2022-07-25T04:05:54.424Z,98321.38
2022-07-25T04:08:24.569Z,98323.25
2022-07-25T04:10:53.858Z,98317.09
2022-07-25T04:13:22.900Z,98319.53
2022-07-25T04:15:52.001Z,98312.88
2022-07-25T04:18:25.689Z,98314.44
2022-07-25T04:20:55.395Z,98319.31
2022-07-25T04:23:21.925Z,98315.66
2022-07-25T04:25:48.442Z,98318.81
2022-07-25T04:28:18.434Z,98314.22
2022-07-25T04:30:45.515Z,98312.88
2022-07-25T04:33:15.638Z,98303.94
2022-07-25T04:35:43.613Z,98313.06
2022-07-25T04:38:13.003Z,98308.88
2022-07-25T04:40:40.104Z,98314.03
2022-07-25T04:43:09.807Z,98310.88
2022-07-25T04:45:39.022Z,98307.06
2022-07-25T04:48:08.881Z,98314.88
2022-07-25T04:50:35.563Z,98311.31
2022-07-25T04:53:08.044Z,98305.06
2022-07-25T04:55:36.286Z,98303.34
2022-07-25T04:58:05.990Z,98298.16
2022-07-25T05:00:33.521Z,98291.50
2022-07-25T05:03:05.035Z,98287.69
2022-07-25T05:05:31.682Z,98280.25
2022-07-25T05:08:00.567Z,98287.56
2022-07-25T05:10:29.879Z,98276.69
2022-07-25T05:12:56.471Z,98274.41
2022-07-25T05:15:26.892Z,98280.50
2022-07-25T05:17:59.278Z,98275.13
2022-07-25T05:20:34.605Z,98279.81
2022-07-25T05:23:01.191Z,98275.22
2022-07-25T05:25:29.283Z,98281.22
2022-07-25T05:28:00.550Z,98286.72
2022-07-25T05:30:27.276Z,98286.84
2022-07-25T05:32:54.107Z,98288.91
2022-07-25T05:35:22.746Z,98291.06
2022-07-25T05:37:49.424Z,98281.13
2022-07-25T05:40:17.563Z,98283.09
2022-07-25T05:42:44.367Z,98280.94
2022-07-25T05:45:11.419Z,98283.00
2022-07-25T05:47:40.677Z,98288.22
2022-07-25T05:50:10.215Z,98287.34
2022-07-25T05:52:36.980Z,98284.69
2022-07-25T05:55:06.143Z,98285.44
2022-07-25T05:57:35.050Z,98277.16
2022-07-25T06:00:02.196Z,98272.44
2022-07-25T06:02:29.025Z,98276.06
2022-07-25T06:04:58.960Z,98278.41
2022-07-25T06:07:28.028Z,98278.53
2022-07-25T06:09:57.163Z,98277.72
2022-07-25T06:12:24.394Z,98280.44
2022-07-25T06:14:53.892Z,98277.16
2022-07-25T06:17:30.498Z,98275.47
2022-07-25T06:19:58.911Z,98275.06
2022-07-25T06:22:25.576Z,98272.31
2022-07-25T06:24:54.586Z,98273.50
2022-07-25T06:27:28.891Z,98282.00
2022-07-25T06:29:56.127Z,98277.03
2022-07-25T06:32:25.426Z,98277.38
2022-07-25T06:34:56.237Z,98269.41
2022-07-25T06:37:22.912Z,98273.03
2022-07-25T06:39:53.029Z,98267.75
2022-07-25T06:42:19.872Z,98261.00
2022-07-25T06:44:46.514Z,98256.44
2022-07-25T06:47:13.347Z,98259.28
2022-07-25T06:49:45.072Z,98262.88
2022-07-25T06:52:14.136Z,98251.75
2022-07-25T06:54:40.879Z,98245.44
2022-07-25T06:57:09.024Z,98249.50
2022-07-25T06:59:35.781Z,98242.13
2022-07-25T07:02:05.002Z,98230.94
2022-07-25T07:04:31.901Z,98237.59
2022-07-25T07:07:03.808Z,98238.97
2022-07-25T07:09:33.447Z,98238.75
2022-07-25T07:12:00.141Z,98243.28
2022-07-25T07:14:27.087Z,98238.09
2022-07-25T07:16:53.866Z,98236.28
2022-07-25T07:19:20.643Z,98242.78
2022-07-25T07:21:59.540Z,98243.53
2022-07-25T07:24:26.447Z,98240.97
2022-07-25T07:26:56.878Z,98233.81
2022-07-25T07:29:27.409Z,98231.41
2022-07-25T07:31:54.393Z,98232.25
2022-07-25T07:34:21.559Z,98232.06
2022-07-25T07:36:54.600Z,98231.44
2022-07-25T07:39:21.340Z,98222.63
2022-07-25T07:41:48.077Z,98218.84
2022-07-25T07:44:16.077Z,98209.06
2022-07-25T07:46:42.982Z,98211.84
2022-07-25T07:49:17.965Z,98202.22
2022-07-25T07:51:44.855Z,98207.06
2022-07-25T07:54:33.045Z,98207.53
2022-07-25T07:57:05.153Z,98201.56
2022-07-25T07:59:34.168Z,98195.47
2022-07-25T08:02:00.807Z,98190.66
2022-07-25T08:04:28.886Z,98190.25
2022-07-25T08:06:55.540Z,98191.06
2022-07-25T08:09:22.220Z,98198.53
2022-07-25T08:11:48.847Z,98179.81
2022-07-25T08:14:20.560Z,98181.47
2022-07-25T08:16:47.282Z,98167.38
2022-07-25T08:19:14.082Z,98164.22
2022-07-25T08:21:42.964Z,98164.31
2022-07-25T08:24:16.951Z,98164.63
2022-07-25T08:26:48.919Z,98162.47
2022-07-25T08:29:21.235Z,98157.66
2022-07-25T08:31:52.889Z,98154.53
2022-07-25T08:34:22.377Z,98156.94
2022-07-25T08:36:49.846Z,98150.13
2022-07-25T08:39:21.857Z,98155.34
2022-07-25T08:41:49.586Z,98155.13
2022-07-25T08:44:22.905Z,98145.41
2022-07-25T08:46:50.075Z,98141.88
2022-07-25T08:49:17.335Z,98151.06
2022-07-25T08:51:47.651Z,98137.72
2022-07-25T08:54:18.805Z,98138.16
2022-07-25T08:56:49.857Z,98126.22
2022-07-25T08:59:21.816Z,98127.31
2022-07-25T09:01:48.540Z,98120.44
2022-07-25T09:04:15.387Z,98115.38
2022-07-25T09:06:52.558Z,98114.44
2022-07-25T09:09:19.552Z,98114.75
2022-07-25T09:11:46.153Z,98114.72
2022-07-25T09:14:15.345Z,98112.69
2022-07-25T09:16:44.629Z,98109.72
2022-07-25T09:19:15.834Z,98105.84
2022-07-25T09:21:45.410Z,98100.31
2022-07-25T09:24:16.069Z,98097.59
2022-07-25T09:26:51.594Z,98096.06
2022-07-25T09:29:26.460Z,98095.66
2022-07-25T09:31:56.505Z,98090.81
2022-07-25T09:34:31.957Z,98092.75
2022-07-25T09:36:58.692Z,98079.81
2022-07-25T09:39:48.259Z,98071.53
2022-07-25T09:42:34.010Z,98077.03
2022-07-25T09:45:12.964Z,98070.88
2022-07-25T09:47:54.530Z,98070.50
2022-07-25T09:50:23.189Z,98073.16
2022-07-25T09:52:55.581Z,98054.66
2022-07-25T09:55:26.957Z,98054.38
2022-07-25T09:57:54.601Z,98061.81
2022-07-25T10:00:30.091Z,98056.41
2022-07-25T10:03:20.699Z,98050.13
2022-07-25T10:06:00.167Z,98046.72
2022-07-25T10:08:27.624Z,98051.78
2022-07-25T10:10:54.538Z,98038.25
2022-07-25T10:13:38.010Z,98042.09
2022-07-25T10:16:15.687Z,98048.69
2022-07-25T10:18:59.625Z,98039.78
2022-07-25T10:21:28.537Z,98042.50
2022-07-25T10:24:01.673Z,98039.41
2022-07-25T10:26:28.855Z,98032.09
2022-07-25T10:29:19.905Z,98027.06
2022-07-25T10:31:52.272Z,98026.28
2022-07-25T10:34:30.986Z,98019.34
2022-07-25T10:37:10.247Z,98013.50
2022-07-25T10:39:42.452Z,98011.19
2022-07-25T10:42:14.712Z,98004.25
2022-07-25T10:44:50.170Z,98006.50
2022-07-25T10:47:23.053Z,98002.25
2022-07-25T10:50:16.872Z,97990.97
2022-07-25T10:52:48.627Z,97990.84
2022-07-25T10:58:17.906Z,97994.97
2022-07-25T11:00:45.352Z,97994.84
2022-07-25T11:03:18.580Z,97999.97
2022-07-25T11:05:56.079Z,97996.94
2022-07-25T11:08:56.491Z,97991.59
2022-07-25T11:11:46.902Z,97988.47
2022-07-25T11:14:23.957Z,97992.44
2022-07-25T11:16:52.805Z,97987.47
2022-07-25T11:19:24.455Z,97966.94
2022-07-25T11:22:14.942Z,97976.06
2022-07-25T11:24:44.705Z,97960.38
2022-07-25T11:27:28.205Z,97970.41
2022-07-25T11:30:16.365Z,97957.78
2022-07-25T11:32:45.692Z,97950.75
2022-07-25T11:35:14.818Z,97949.19
2022-07-25T11:37:44.716Z,97949.44
2022-07-25T11:40:11.656Z,97942.03
2022-07-25T11:42:43.439Z,97931.94
2022-07-25T11:45:40.007Z,97920.84
2022-07-25T11:48:14.714Z,97920.16
2022-07-25T11:50:44.178Z,97912.72
2022-07-25T11:53:18.648Z,97917.56
2022-07-25T11:55:47.528Z,97910.22
2022-07-25T11:58:14.684Z,97907.72
2022-07-25T12:00:48.277Z,97914.03
2022-07-25T12:03:20.238Z,97914.13
2022-07-25T12:05:51.627Z,97912.56
2022-07-25T12:08:20.708Z,97901.84
2022-07-25T12:10:51.553Z,97906.47
2022-07-25T12:13:27.239Z,97888.03
2022-07-25T12:15:58.763Z,97888.88
2022-07-25T12:18:26.016Z,97885.28
2022-07-25T12:20:55.528Z,97879.31
2022-07-25T12:23:22.760Z,97873.81
2022-07-25T12:25:52.668Z,97881.09
2022-07-25T12:28:19.638Z,97881.59
2022-07-25T12:30:50.498Z,97879.69
2022-07-25T12:33:19.975Z,97878.38
2022-07-25T12:35:46.725Z,97881.22
2022-07-25T12:38:14.387Z,97875.09
2022-07-25T12:40:41.165Z,97868.66
2022-07-25T12:43:08.030Z,97862.97
2022-07-25T12:45:34.709Z,97851.91
2022-07-25T12:48:01.523Z,97852.63
2022-07-25T12:50:28.282Z,97858.00
2022-07-25T12:52:55.099Z,97860.00
2022-07-25T12:55:21.922Z,97844.09
2022-07-25T12:57:49.321Z,97846.13
2022-07-25T13:00:18.919Z,97845.16
2022-07-25T13:02:49.015Z,97841.47
2022-07-25T13:05:18.682Z,97835.97
2022-07-25T13:07:47.633Z,97830.34
2022-07-25T13:10:14.559Z,97845.84
2022-07-25T13:12:43.779Z,97838.91
2022-07-25T13:15:11.034Z,97826.69
2022-07-25T13:17:40.345Z,97834.06
2022-07-25T13:20:07.748Z,97834.47
2022-07-25T13:22:34.430Z,97828.69
2022-07-25T13:25:03.432Z,97833.31
2022-07-25T13:27:30.170Z,97825.22
2022-07-25T13:29:59.885Z,97824.78
2022-07-25T13:32:28.456Z,97822.59
2022-07-25T13:34:55.636Z,97821.53
2022-07-25T13:37:22.410Z,97823.78
2022-07-25T13:39:49.369Z,97811.09
2022-07-25T13:42:16.087Z,97819.78
2022-07-25T13:44:43.190Z,97839.75
2022-07-25T13:47:09.970Z,97825.03
2022-07-25T13:49:37.157Z,97831.47
2022-07-25T13:52:04.070Z,97829.13
2022-07-25T13:54:30.844Z,97821.22
2022-07-25T13:56:57.630Z,97822.94
2022-07-25T13:59:24.311Z,97828.16
2022-07-25T14:01:51.204Z,97825.22
2022-07-25T14:04:18.216Z,97824.97
2022-07-25T14:06:44.969Z,97818.72
2022-07-25T14:09:11.799Z,97822.59
2022-07-25T14:11:38.730Z,97838.88
2022-07-25T14:14:05.322Z,97832.41
2022-07-25T14:16:33.822Z,97823.25
2022-07-25T14:19:01.286Z,97828.53
2022-07-25T14:21:28.167Z,97827.06
2022-07-25T14:23:54.812Z,97824.09
2022-07-25T14:26:21.513Z,97818.13
2022-07-25T14:28:48.255Z,97806.66
2022-07-25T14:31:15.126Z,97812.41
2022-07-25T14:33:41.868Z,97808.38
2022-07-25T14:36:10.406Z,97818.72
2022-07-25T14:38:37.347Z,97814.50
2022-07-25T14:41:12.078Z,97815.59
2022-07-25T14:43:41.671Z,97823.72
2022-07-25T14:46:12.262Z,97816.22
2022-07-25T14:48:39.206Z,97812.44
2022-07-25T14:51:06.638Z,97820.59
2022-07-25T14:53:34.643Z,97816.13
2022-07-25T14:56:03.735Z,97824.38
2022-07-25T14:58:30.593Z,97821.69
2022-07-25T15:00:57.310Z,97827.44
2022-07-25T15:03:23.995Z,97834.09
2022-07-25T15:05:50.714Z,97826.66
2022-07-25T15:08:19.653Z,97825.63
2022-07-25T15:10:46.174Z,97819.91
2022-07-25T15:13:30.345Z,97825.63
2022-07-25T15:15:58.758Z,97822.63
2022-07-25T15:18:25.833Z,97813.69
2022-07-25T15:20:52.603Z,97819.44
2022-07-25T15:23:21.070Z,97806.38
2022-07-25T15:26:04.467Z,97801.75
2022-07-25T15:28:36.861Z,97800.22
2022-07-25T15:31:05.529Z,97801.94
2022-07-25T15:33:33.833Z,97784.75
2022-07-25T15:36:01.061Z,97787.59
2022-07-25T15:38:28.994Z,97785.59
2022-07-25T15:40:55.891Z,97789.56
2022-07-25T15:43:22.674Z,97794.19
2022-07-25T15:45:50.066Z,97786.13
2022-07-25T15:48:17.565Z,97790.75
2022-07-25T15:50:49.357Z,97797.97
2022-07-25T15:53:19.238Z,97800.09
2022-07-25T15:55:46.037Z,97799.47
2022-07-25T15:58:12.989Z,97809.09
2022-07-25T16:00:41.265Z,97813.75
2022-07-25T16:03:08.077Z,97793.69
2022-07-25T16:05:35.814Z,97797.19
2022-07-25T16:08:05.376Z,97799.91
2022-07-25T16:10:36.227Z,97800.69
2022-07-25T16:13:03.094Z,97808.06
2022-07-25T16:15:29.744Z,97805.75
2022-07-25T16:18:01.695Z,97814.56
2022-07-25T16:20:29.386Z,97821.88
2022-07-25T16:22:57.894Z,97819.91
2022-07-25T16:25:26.017Z,97818.34
2022-07-25T16:28:19.044Z,97822.50
2022-07-25T16:30:46.091Z,97820.25
2022-07-25T16:33:12.938Z,97809.09
2022-07-25T16:35:39.698Z,97797.53
2022-07-25T16:38:06.547Z,97797.53
2022-07-25T16:40:33.339Z,97801.44
2022-07-25T16:43:00.105Z,97792.56
2022-07-25T16:45:27.128Z,97792.59
2022-07-25T16:47:53.915Z,97791.44
2022-07-25T16:50:20.897Z,97789.50
2022-07-25T16:52:48.414Z,97794.53
2022-07-25T16:55:15.134Z,97780.63
2022-07-25T16:57:41.805Z,97791.47
2022-07-25T17:00:10.158Z,97775.22
2022-07-25T17:02:37.114Z,97777.91
2022-07-25T17:05:07.089Z,97771.38
2022-07-25T17:07:34.161Z,97769.03
2022-07-25T17:10:04.503Z,97768.63
2022-07-25T17:12:31.581Z,97765.19
2022-07-25T17:15:07.618Z,97769.78
2022-07-25T17:17:34.350Z,97776.38
2022-07-25T17:20:01.007Z,97767.91
2022-07-25T17:22:27.696Z,97774.44
2022-07-25T17:24:54.313Z,97774.81
2022-07-25T17:27:21.137Z,97774.31
2022-07-25T17:29:47.871Z,97775.81
2022-07-25T17:32:14.701Z,97788.94
2022-07-25T17:34:41.563Z,97778.84
2022-07-25T17:37:08.925Z,97783.34
2022-07-25T17:39:38.087Z,97787.13
2022-07-25T17:42:07.637Z,97791.78
2022-07-25T17:44:35.171Z,97789.13
2022-07-25T17:47:03.472Z,97801.44
2022-07-25T17:49:30.391Z,97799.97
2022-07-25T17:51:57.034Z,97791.41
2022-07-25T17:54:23.756Z,97802.50
2022-07-25T17:56:53.541Z,97793.97
2022-07-25T17:59:20.175Z,97799.38
2022-07-25T18:01:46.839Z,97800.53
2022-07-25T18:04:14.430Z,97799.63
2022-07-25T18:06:43.614Z,97803.84
2022-07-25T18:09:10.152Z,97801.47
2022-07-25T18:11:36.796Z,97797.59
2022-07-25T18:14:03.403Z,97799.44
2022-07-25T18:16:30.047Z,97802.06
2022-07-25T18:18:58.605Z,97795.50
2022-07-25T18:21:25.353Z,97807.03
2022-07-25T18:23:52.197Z,97801.22
2022-07-25T18:26:18.989Z,97799.66
2022-07-25T18:28:45.742Z,97801.53
2022-07-25T18:31:12.606Z,97800.34
2022-07-25T18:33:41.825Z,97798.41
2022-07-25T18:36:08.500Z,97802.50
2022-07-25T18:38:36.380Z,97794.69
2022-07-25T18:41:28.093Z,97797.72
2022-07-25T18:43:53.193Z,97807.31
2022-07-25T18:46:20.598Z,97809.09
2022-07-25T18:48:52.195Z,97809.84
2022-07-25T18:51:20.579Z,97798.19
2022-07-25T18:53:48.473Z,97806.50
2022-07-25T18:56:16.493Z,97811.41
2022-07-25T18:58:43.935Z,97809.00
2022-07-25T19:01:10.925Z,97807.09
2022-07-25T19:03:38.291Z,97814.44
2022-07-25T19:06:09.077Z,97820.81
2022-07-25T19:08:36.128Z,97824.53
2022-07-25T19:11:07.009Z,97827.00
2022-07-25T19:13:49.545Z,97827.09
2022-07-25T19:16:18.423Z,97835.13
2022-07-25T19:18:45.427Z,97846.94
2022-07-25T19:21:12.264Z,97844.31
2022-07-25T19:23:39.006Z,97850.06
2022-07-25T19:26:06.309Z,97846.91
2022-07-25T19:28:33.046Z,97853.34
2022-07-25T19:31:01.107Z,97857.03
2022-07-25T19:33:35.742Z,97852.72
2022-07-25T19:36:04.260Z,97860.38
2022-07-25T19:38:33.412Z,97879.72
2022-07-25T19:41:02.329Z,97896.75
2022-07-25T19:43:29.220Z,97908.75
2022-07-25T19:45:56.179Z,97915.03
2022-07-25T19:48:26.061Z,97925.06
2022-07-25T19:50:53.218Z,97924.41
2022-07-25T19:53:26.803Z,97935.78
2022-07-25T19:55:55.138Z,97936.06
2022-07-25T19:58:21.890Z,97935.13
2022-07-25T20:00:48.515Z,97929.50
2022-07-25T20:03:15.699Z,97941.13
2022-07-25T20:05:42.569Z,97942.44
2022-07-25T20:08:09.200Z,97950.91
2022-07-25T20:10:36.021Z,97959.25
2022-07-25T20:13:02.807Z,97953.81
2022-07-25T20:15:29.537Z,97954.94
2022-07-25T20:17:57.016Z,97954.09
2022-07-25T20:20:23.981Z,97961.25
2022-07-25T20:22:53.368Z,97969.09
2022-07-25T20:25:22.600Z,97975.75
2022-07-25T20:27:49.957Z,97978.97
2022-07-25T20:30:17.661Z,97990.59
2022-07-25T20:32:44.429Z,97991.72
2022-07-25T20:35:13.727Z,97998.16
2022-07-25T20:37:42.855Z,98012.91
2022-07-25T20:40:10.567Z,98003.75
2022-07-25T20:42:37.427Z,97999.31
2022-07-25T20:45:08.654Z,98011.38
2022-07-25T20:47:35.490Z,98013.84
2022-07-25T20:50:05.667Z,98017.88
2022-07-25T20:52:36.171Z,98026.13
2022-07-25T20:55:06.702Z,98033.19
2022-07-25T20:57:37.008Z,98037.50
2022-07-25T21:00:05.334Z,98041.47
2022-07-25T21:02:39.797Z,98051.97
2022-07-25T21:05:06.998Z,98048.84
2022-07-25T21:07:36.328Z,98035.59
2022-07-25T21:10:03.173Z,98047.63
2022-07-25T21:12:32.781Z,98056.31
2022-07-25T21:15:01.184Z,98066.00
2022-07-25T21:17:28.328Z,98072.56
2022-07-25T21:19:58.181Z,98069.22
2022-07-25T21:22:25.458Z,98073.19
2022-07-25T21:24:53.606Z,98085.22
2022-07-25T21:27:20.437Z,98087.59
2022-07-25T21:29:47.045Z,98077.66
2022-07-25T21:32:17.442Z,98076.44
2022-07-25T21:34:45.834Z,98082.66
2022-07-25T21:37:13.145Z,98087.06
2022-07-25T21:39:39.826Z,98097.03
2022-07-25T21:42:10.093Z,98099.59
2022-07-25T21:44:39.045Z,98102.38
2022-07-25T21:47:05.956Z,98116.72
2022-07-25T21:49:51.355Z,98109.34
2022-07-25T21:52:20.806Z,98108.78
2022-07-25T21:54:56.999Z,98120.16
2022-07-25T21:57:23.610Z,98125.94
2022-07-25T21:59:50.332Z,98129.84
2022-07-25T22:02:18.206Z,98139.13
2022-07-25T22:04:44.820Z,98149.16
2022-07-25T22:07:13.871Z,98149.69
2022-07-25T22:09:42.892Z,98153.75
2022-07-25T22:12:09.896Z,98167.72
2022-07-25T22:14:38.930Z,98169.88
2022-07-25T22:17:05.935Z,98179.66
2022-07-25T22:19:37.109Z,98181.03
2022-07-25T22:22:05.973Z,98179.94
2022-07-25T22:24:33.040Z,98177.59
2022-07-25T22:26:59.966Z,98181.22
2022-07-25T22:29:29.152Z,98199.28
2022-07-25T22:31:58.147Z,98189.56
2022-07-25T22:34:24.907Z,98185.31
2022-07-25T22:36:51.458Z,98191.25
2022-07-25T22:39:18.109Z,98193.16
2022-07-25T22:41:45.158Z,98191.63
2022-07-25T22:44:11.867Z,98193.28
2022-07-25T22:46:38.530Z,98197.38
2022-07-25T22:49:05.609Z,98205.69
2022-07-25T22:51:32.551Z,98214.31
2022-07-25T22:54:01.753Z,98223.22
2022-07-25T22:56:29.269Z,98213.38
2022-07-25T22:58:55.972Z,98229.97
2022-07-25T23:01:23.099Z,98232.44
2022-07-25T23:03:50.503Z,98243.22
2022-07-25T23:06:20.495Z,98254.81
2022-07-25T23:08:48.649Z,98252.59
2022-07-25T23:11:15.352Z,98256.22
2022-07-25T23:13:42.086Z,98255.44
2022-07-25T23:16:11.274Z,98258.41
2022-07-25T23:18:40.779Z,98264.06
2022-07-25T23:21:12.616Z,98261.38
2022-07-25T23:23:39.262Z,98262.78
2022-07-25T23:26:05.925Z,98267.94
2022-07-25T23:28:32.832Z,98268.69
2022-07-25T23:30:59.540Z,98277.75
2022-07-25T23:33:31.960Z,98279.28
2022-07-25T23:35:59.108Z,98282.22
2022-07-25T23:38:26.712Z,98284.44
2022-07-25T23:40:55.815Z,98294.13
2022-07-25T23:43:56.177Z,98291.97
2022-07-25T23:46:14.441Z,98294.41
2022-07-25T23:48:41.869Z,98288.59
2022-07-25T23:51:08.589Z,98284.84
2022-07-25T23:53:38.421Z,98288.50
2022-07-25T23:56:05.228Z,98286.22
2022-07-25T23:58:34.434Z,98286.59
